createdAt,value
2018-02-07T00:00:34.263Z,100836.97
2018-02-07T00:03:01.667Z,100841.69
2018-02-07T00:05:29.057Z,100832.20
2018-02-07T00:07:56.458Z,100836.44
2018-02-07T00:10:23.852Z,100832.28
2018-02-07T00:12:51.256Z,100828.11
2018-02-07T00:15:18.646Z,100832.23
2018-02-07T00:17:46.039Z,100829.60
2018-02-07T00:20:13.454Z,100833.05
2018-02-07T00:22:40.922Z,100831.59
2018-02-07T00:25:08.331Z,100830.00
2018-02-07T00:27:35.739Z,100834.03
2018-02-07T00:30:03.796Z,100829.05
2018-02-07T00:32:31.207Z,100824.66
2018-02-07T00:34:58.603Z,100823.07
2018-02-07T00:37:25.998Z,100822.71
2018-02-07T00:39:53.395Z,100822.84
2018-02-07T00:42:20.797Z,100822.16
2018-02-07T00:44:48.231Z,100817.97
2018-02-07T00:47:15.625Z,100822.78
2018-02-07T00:49:43.036Z,100820.66
2018-02-07T00:52:10.519Z,100818.41
2018-02-07T00:54:37.910Z,100815.45
2018-02-07T00:57:05.325Z,100819.53
2018-02-07T00:59:32.718Z,100822.09
2018-02-07T01:02:00.113Z,100822.11
2018-02-07T01:04:27.513Z,100824.66
2018-02-07T01:06:54.917Z,100823.90
2018-02-07T01:09:22.314Z,100818.75
2018-02-07T01:11:49.727Z,100808.88
2018-02-07T01:14:17.118Z,100820.63
2018-02-07T01:16:44.519Z,100820.27
2018-02-07T01:19:11.917Z,100817.12
2018-02-07T01:21:39.322Z,100820.69
2018-02-07T01:24:06.715Z,100827.20
2018-02-07T01:26:34.114Z,100829.42
2018-02-07T01:29:01.510Z,100832.48
2018-02-07T01:31:28.918Z,100833.38
2018-02-07T01:33:56.325Z,100832.97
2018-02-07T01:36:23.774Z,100832.14
2018-02-07T01:38:51.162Z,100828.16
2018-02-07T01:41:18.576Z,100821.69
2018-02-07T01:43:45.970Z,100824.70
2018-02-07T01:46:13.378Z,100820.79
2018-02-07T01:48:40.771Z,100821.66
2018-02-07T01:51:08.165Z,100819.56
2018-02-07T01:53:35.558Z,100823.48
2018-02-07T01:56:02.995Z,100821.35
2018-02-07T01:58:30.386Z,100821.30
2018-02-07T02:00:57.802Z,100825.16
2018-02-07T02:03:25.190Z,100821.66
2018-02-07T02:05:52.601Z,100819.52
2018-02-07T02:08:19.989Z,100825.08
2018-02-07T02:10:47.439Z,100830.72
2018-02-07T02:13:14.845Z,100835.45
2018-02-07T02:15:42.230Z,100827.27
2018-02-07T02:18:09.633Z,100827.67
2018-02-07T02:20:37.051Z,100826.36
2018-02-07T02:23:04.451Z,100832.45
2018-02-07T02:25:31.873Z,100826.42
2018-02-07T02:27:59.274Z,100834.15
2018-02-07T02:30:26.670Z,100831.59
2018-02-07T02:32:54.133Z,100831.95
2018-02-07T02:35:21.522Z,100828.12
2018-02-07T02:37:48.930Z,100828.11
2018-02-07T02:40:16.322Z,100824.77
2018-02-07T02:42:43.733Z,100822.18
2018-02-07T02:45:11.128Z,100822.95
2018-02-07T02:47:38.523Z,100827.65
2018-02-07T02:50:05.906Z,100828.95
2018-02-07T02:52:33.406Z,100836.35
2018-02-07T02:55:00.894Z,100834.31
2018-02-07T02:57:28.309Z,100840.79
2018-02-07T02:59:55.705Z,100836.48
2018-02-07T03:02:23.150Z,100841.23
2018-02-07T03:04:50.554Z,100836.95
2018-02-07T03:07:18.058Z,100845.97
2018-02-07T03:09:45.455Z,100846.83
2018-02-07T03:12:12.853Z,100845.97
2018-02-07T03:14:40.246Z,100845.12
2018-02-07T03:17:07.654Z,100844.73
2018-02-07T03:19:35.091Z,100852.03
2018-02-07T03:22:02.489Z,100836.11
2018-02-07T03:24:29.885Z,100840.00
2018-02-07T03:26:57.302Z,100837.86
2018-02-07T03:29:24.768Z,100841.70
2018-02-07T03:31:52.165Z,100840.86
2018-02-07T03:34:19.555Z,100839.16
2018-02-07T03:36:46.961Z,100830.98
2018-02-07T03:39:14.354Z,100833.11
2018-02-07T03:41:41.825Z,100839.56
2018-02-07T03:44:09.281Z,100836.54
2018-02-07T03:46:36.703Z,100839.57
2018-02-07T03:49:05.073Z,100845.16
2018-02-07T03:51:32.461Z,100841.70
2018-02-07T03:53:59.861Z,100851.17
2018-02-07T03:56:27.278Z,100850.75
2018-02-07T03:58:54.670Z,100853.73
2018-02-07T04:01:22.066Z,100852.87
2018-02-07T04:03:49.554Z,100846.44
2018-02-07T04:06:16.955Z,100850.75
2018-02-07T04:08:44.462Z,100856.29
2018-02-07T04:11:11.858Z,100863.20
2018-02-07T04:13:39.254Z,100854.20
2018-02-07T04:16:06.645Z,100855.05
2018-02-07T04:18:34.087Z,100861.92
2018-02-07T04:21:01.490Z,100864.52
2018-02-07T04:23:28.885Z,100865.78
2018-02-07T04:25:56.348Z,100870.11
2018-02-07T04:28:23.745Z,100873.10
2018-02-07T04:30:51.158Z,100871.80
2018-02-07T04:33:19.482Z,100873.97
2018-02-07T04:35:46.874Z,100876.58
2018-02-07T04:38:14.281Z,100876.12
2018-02-07T04:40:41.665Z,100874.84
2018-02-07T04:43:09.066Z,100873.99
2018-02-07T04:45:36.466Z,100866.66
2018-02-07T04:48:03.892Z,100869.69
2018-02-07T04:50:31.267Z,100870.11
2018-02-07T04:52:58.681Z,100876.52
2018-02-07T04:55:26.074Z,100880.83
2018-02-07T04:57:53.582Z,100874.37
2018-02-07T05:00:21.033Z,100874.41
2018-02-07T05:02:48.438Z,100876.97
2018-02-07T05:05:15.834Z,100878.64
2018-02-07T05:07:43.421Z,100882.97
2018-02-07T05:10:10.814Z,100877.81
2018-02-07T05:12:38.221Z,100879.10
2018-02-07T05:15:05.666Z,100881.71
2018-02-07T05:17:33.066Z,100889.47
2018-02-07T05:20:00.458Z,100883.44
2018-02-07T05:22:27.864Z,100887.73
2018-02-07T05:24:55.283Z,100881.73
2018-02-07T05:27:22.683Z,100885.18
2018-02-07T05:29:50.087Z,100886.44
2018-02-07T05:32:17.489Z,100882.13
2018-02-07T05:34:44.898Z,100880.38
2018-02-07T05:37:12.362Z,100882.48
2018-02-07T05:39:39.796Z,100886.80
2018-02-07T05:42:07.186Z,100884.66
2018-02-07T05:44:34.588Z,100886.82
2018-02-07T05:47:01.995Z,100885.13
2018-02-07T05:49:29.385Z,100884.22
2018-02-07T05:51:56.785Z,100888.46
2018-02-07T05:54:24.183Z,100885.44
2018-02-07T05:56:51.593Z,100884.59
2018-02-07T05:59:19.006Z,100881.66
2018-02-07T06:01:46.407Z,100884.69
2018-02-07T06:04:13.809Z,100890.64
2018-02-07T06:06:41.198Z,100891.47
2018-02-07T06:09:08.606Z,100891.95
2018-02-07T06:11:36.036Z,100893.30
2018-02-07T06:14:03.430Z,100889.88
2018-02-07T06:16:30.864Z,100894.15
2018-02-07T06:18:58.263Z,100896.33
2018-02-07T06:21:25.659Z,100900.17
2018-02-07T06:23:53.049Z,100898.89
2018-02-07T06:26:20.453Z,100898.87
2018-02-07T06:28:47.870Z,100900.14
2018-02-07T06:31:15.266Z,100914.80
2018-02-07T06:33:42.769Z,100909.61
2018-02-07T06:36:10.181Z,100904.38
2018-02-07T06:38:37.578Z,100910.01
2018-02-07T06:41:05.001Z,100913.42
2018-02-07T06:43:32.379Z,100906.98
2018-02-07T06:45:59.781Z,100904.86
2018-02-07T06:48:27.173Z,100908.30
2018-02-07T06:50:54.606Z,100921.59
2018-02-07T06:53:22.006Z,100924.56
2018-02-07T06:55:49.410Z,100925.95
2018-02-07T06:58:16.816Z,100929.41
2018-02-07T07:00:44.232Z,100929.88
2018-02-07T07:03:11.636Z,100918.20
2018-02-07T07:05:39.026Z,100926.79
2018-02-07T07:08:06.425Z,100934.55
2018-02-07T07:10:33.814Z,100936.31
2018-02-07T07:13:01.215Z,100940.09
2018-02-07T07:15:28.650Z,100939.68
2018-02-07T07:17:56.058Z,100938.45
2018-02-07T07:20:23.469Z,100941.91
2018-02-07T07:22:50.918Z,100942.33
2018-02-07T07:25:18.375Z,100944.38
2018-02-07T07:27:45.774Z,100944.80
2018-02-07T07:30:13.175Z,100947.38
2018-02-07T07:32:40.637Z,100953.00
2018-02-07T07:35:08.035Z,100953.98
2018-02-07T07:37:35.429Z,100956.10
2018-02-07T07:40:02.907Z,100956.13
2018-02-07T07:42:30.298Z,100955.64
2018-02-07T07:44:57.714Z,100951.78
2018-02-07T07:47:25.110Z,100952.69
2018-02-07T07:49:52.509Z,100956.54
2018-02-07T07:52:19.899Z,100959.98
2018-02-07T07:54:47.310Z,100954.03
2018-02-07T07:57:14.714Z,100962.98
2018-02-07T07:59:42.149Z,100955.47
2018-02-07T08:02:10.103Z,100962.93
2018-02-07T08:04:37.498Z,100953.43
2018-02-07T08:07:04.898Z,100962.91
2018-02-07T08:09:32.373Z,100957.14
2018-02-07T08:11:59.780Z,100960.34
2018-02-07T08:14:27.171Z,100966.23
2018-02-07T08:16:54.559Z,100967.44
2018-02-07T08:19:21.953Z,100969.16
2018-02-07T08:21:49.350Z,100981.20
2018-02-07T08:24:16.802Z,100973.18
2018-02-07T08:26:44.198Z,100969.16
2018-02-07T08:29:11.626Z,100979.66
2018-02-07T08:31:39.014Z,100980.42
2018-02-07T08:34:06.422Z,100976.67
2018-02-07T08:36:33.886Z,100974.76
2018-02-07T08:39:01.285Z,100971.27
2018-02-07T08:41:28.678Z,100971.88
2018-02-07T08:43:56.087Z,100985.08
2018-02-07T08:46:23.482Z,100983.70
2018-02-07T08:48:50.874Z,100987.17
2018-02-07T08:51:18.274Z,100982.91
2018-02-07T08:53:45.762Z,100996.56
2018-02-07T08:56:13.173Z,100999.30
2018-02-07T08:58:40.574Z,100997.52
2018-02-07T09:01:07.972Z,101003.50
2018-02-07T09:03:35.383Z,101005.27
2018-02-07T09:06:02.774Z,101003.56
2018-02-07T09:08:30.166Z,101005.94
2018-02-07T09:10:57.669Z,101006.22
2018-02-07T09:13:25.041Z,101003.64
2018-02-07T09:15:52.454Z,100997.03
2018-02-07T09:18:19.854Z,100998.93
2018-02-07T09:20:47.777Z,101003.59
2018-02-07T09:23:16.043Z,101002.54
2018-02-07T09:25:43.452Z,101003.11
2018-02-07T09:28:10.875Z,101002.02
2018-02-07T09:30:38.330Z,101001.15
2018-02-07T09:33:05.727Z,101010.26
2018-02-07T09:35:33.130Z,101011.17
2018-02-07T09:38:00.590Z,101017.37
2018-02-07T09:40:28.056Z,101010.78
2018-02-07T09:42:55.443Z,101021.16
2018-02-07T09:45:22.861Z,101021.47
2018-02-07T09:47:50.246Z,101016.29
2018-02-07T09:50:17.677Z,101020.33
2018-02-07T09:52:45.058Z,101014.83
2018-02-07T09:55:12.486Z,101015.80
2018-02-07T09:57:39.882Z,101015.32
2018-02-07T10:00:07.274Z,101014.75
2018-02-07T10:02:34.680Z,101016.80
2018-02-07T10:05:02.080Z,101026.85
2018-02-07T10:07:29.466Z,101026.80
2018-02-07T10:09:56.862Z,101023.92
2018-02-07T10:12:24.254Z,101025.61
2018-02-07T10:14:51.650Z,101032.34
2018-02-07T10:17:20.273Z,101028.06
2018-02-07T10:19:47.643Z,101028.16
2018-02-07T10:22:15.034Z,101029.22
2018-02-07T10:24:43.110Z,101031.66
2018-02-07T10:27:10.503Z,101031.72
2018-02-07T10:29:38.239Z,101032.84
2018-02-07T10:32:05.630Z,101038.52
2018-02-07T10:34:33.022Z,101034.16
2018-02-07T10:37:00.413Z,101040.77
2018-02-07T10:39:27.830Z,101033.48
2018-02-07T10:41:55.213Z,101027.19
2018-02-07T10:44:22.613Z,101031.03
2018-02-07T10:46:49.998Z,101043.31
2018-02-07T10:49:17.398Z,101037.80
2018-02-07T10:51:44.786Z,101035.47
2018-02-07T10:54:12.187Z,101031.14
2018-02-07T10:56:39.586Z,101032.00
2018-02-07T10:59:06.975Z,101041.95
2018-02-07T11:01:34.373Z,101029.28
2018-02-07T11:04:01.784Z,101021.06
2018-02-07T11:06:29.166Z,101019.88
2018-02-07T11:08:56.566Z,101030.31
2018-02-07T11:11:23.946Z,101027.95
2018-02-07T11:13:51.415Z,101024.84
2018-02-07T11:16:18.807Z,101024.16
2018-02-07T11:18:46.222Z,101025.72
2018-02-07T11:21:13.670Z,101033.41
2018-02-07T11:23:41.063Z,101037.98
2018-02-07T11:26:08.457Z,101028.02
2018-02-07T11:28:35.962Z,101035.60
2018-02-07T11:31:03.357Z,101039.76
2018-02-07T11:33:30.854Z,101040.96
2018-02-07T11:35:58.269Z,101032.75
2018-02-07T11:38:26.378Z,101034.17
2018-02-07T11:40:53.766Z,101036.66
2018-02-07T11:43:21.534Z,101037.15
2018-02-07T11:45:48.942Z,101036.48
2018-02-07T11:48:16.409Z,101037.70
2018-02-07T11:50:43.814Z,101040.53
2018-02-07T11:53:11.201Z,101038.97
2018-02-07T11:55:38.631Z,101031.73
2018-02-07T11:58:06.013Z,101044.55
2018-02-07T12:00:33.405Z,101035.44
2018-02-07T12:03:00.841Z,101032.09
2018-02-07T12:05:28.256Z,101037.40
2018-02-07T12:07:55.642Z,101034.55
2018-02-07T12:10:23.123Z,101033.41
2018-02-07T12:12:50.515Z,101041.27
2018-02-07T12:15:17.918Z,101035.25
2018-02-07T12:17:45.373Z,101034.06
2018-02-07T12:20:12.775Z,101028.24
2018-02-07T12:22:40.157Z,101029.78
2018-02-07T12:25:07.557Z,101035.00
2018-02-07T12:27:34.943Z,101037.84
2018-02-07T12:30:02.334Z,101031.64
2018-02-07T12:32:29.732Z,101023.80
2018-02-07T12:34:57.131Z,101030.56
2018-02-07T12:37:24.621Z,101028.09
2018-02-07T12:39:52.018Z,101030.59
2018-02-07T12:42:19.409Z,101029.22
2018-02-07T12:44:46.800Z,101030.42
2018-02-07T12:47:14.181Z,101034.38
2018-02-07T12:49:41.561Z,101036.34
2018-02-07T12:52:09.054Z,101030.44
2018-02-07T12:54:36.513Z,101029.17
2018-02-07T12:57:03.970Z,101037.63
2018-02-07T12:59:31.366Z,101030.37
2018-02-07T13:01:58.762Z,101031.22
2018-02-07T13:04:26.172Z,101033.69
2018-02-07T13:06:53.559Z,101028.88
2018-02-07T13:09:20.961Z,101022.72
2018-02-07T13:11:48.346Z,101023.29
2018-02-07T13:14:15.730Z,101023.11
2018-02-07T13:16:43.213Z,101027.81
2018-02-07T13:19:10.605Z,101021.73
2018-02-07T13:21:38.000Z,101011.20
2018-02-07T13:24:05.381Z,101013.50
2018-02-07T13:26:32.773Z,101014.47
2018-02-07T13:29:00.162Z,101012.81
2018-02-07T13:31:27.583Z,101015.91
2018-02-07T13:33:54.954Z,101023.05
2018-02-07T13:36:22.375Z,101017.31
2018-02-07T13:38:49.767Z,101014.77
2018-02-07T13:41:17.182Z,101021.63
2018-02-07T13:43:44.746Z,101021.52
2018-02-07T13:46:12.274Z,101028.61
2018-02-07T13:48:39.741Z,101031.67
2018-02-07T13:51:07.140Z,101028.17
2018-02-07T13:53:34.531Z,101028.44
2018-02-07T13:56:01.926Z,101029.19
2018-02-07T13:58:29.371Z,101029.74
2018-02-07T14:00:56.771Z,101030.08
2018-02-07T14:03:24.152Z,101032.68
2018-02-07T14:05:51.538Z,101032.91
2018-02-07T14:08:18.926Z,101032.52
2018-02-07T14:10:46.318Z,101026.50
2018-02-07T14:13:13.710Z,101025.01
2018-02-07T14:15:41.111Z,101032.61
2018-02-07T14:18:08.514Z,101023.88
2018-02-07T14:20:35.969Z,101029.69
2018-02-07T14:23:03.425Z,101031.33
2018-02-07T14:25:30.830Z,101028.84
2018-02-07T14:27:58.218Z,101029.20
2018-02-07T14:30:25.611Z,101025.25
2018-02-07T14:32:53.016Z,101022.70
2018-02-07T14:35:20.412Z,101020.45
2018-02-07T14:37:47.799Z,101020.78
2018-02-07T14:40:15.178Z,101021.77
2018-02-07T14:42:42.570Z,101027.01
2018-02-07T14:45:09.954Z,101019.36
2018-02-07T14:47:37.346Z,101017.06
2018-02-07T14:50:04.729Z,101010.51
2018-02-07T14:52:32.122Z,101008.81
2018-02-07T14:54:59.505Z,101009.58
2018-02-07T14:57:27.002Z,101007.47
2018-02-07T14:59:54.386Z,101021.41
2018-02-07T15:02:21.813Z,101018.94
2018-02-07T15:04:49.202Z,101025.41
2018-02-07T15:07:16.602Z,101020.70
2018-02-07T15:09:43.996Z,101026.60
2018-02-07T15:12:11.386Z,101027.39
2018-02-07T15:14:38.794Z,101028.95
2018-02-07T15:17:06.195Z,101036.47
2018-02-07T15:19:33.586Z,101032.81
2018-02-07T15:22:00.974Z,101037.80
2018-02-07T15:24:28.366Z,101038.84
2018-02-07T15:26:55.788Z,101039.08
2018-02-07T15:29:23.146Z,101030.70
2018-02-07T15:31:50.531Z,101038.57
2018-02-07T15:34:17.960Z,101038.03
2018-02-07T15:36:45.317Z,101036.32
2018-02-07T15:39:12.712Z,101040.86
2018-02-07T15:41:40.206Z,101033.66
2018-02-07T15:44:07.594Z,101040.09
2018-02-07T15:46:34.987Z,101034.69
2018-02-07T15:49:02.375Z,101036.30
2018-02-07T15:51:29.762Z,101041.39
2018-02-07T15:53:57.186Z,101045.31
2018-02-07T15:56:24.586Z,101042.27
2018-02-07T15:58:51.974Z,101041.84
2018-02-07T16:01:19.369Z,101041.61
2018-02-07T16:03:46.759Z,101041.59
2018-02-07T16:06:14.154Z,101043.97
2018-02-07T16:08:41.546Z,101047.20
2018-02-07T16:11:08.941Z,101045.16
2018-02-07T16:13:36.329Z,101047.60
2018-02-07T16:16:03.710Z,101045.88
2018-02-07T16:18:31.103Z,101048.01
2018-02-07T16:20:58.505Z,101044.73
2018-02-07T16:23:25.889Z,101055.56
2018-02-07T16:25:53.291Z,101058.53
2018-02-07T16:28:20.683Z,101058.65
2018-02-07T16:30:48.094Z,101059.12
2018-02-07T16:33:15.488Z,101047.01
2018-02-07T16:35:42.921Z,101055.38
2018-02-07T16:38:10.377Z,101058.95
2018-02-07T16:40:37.762Z,101060.02
2018-02-07T16:43:05.162Z,101063.80
2018-02-07T16:45:32.571Z,101057.97
2018-02-07T16:47:59.953Z,101066.64
2018-02-07T16:50:27.354Z,101064.39
2018-02-07T16:52:54.805Z,101067.75
2018-02-07T16:55:22.195Z,101065.84
2018-02-07T16:57:49.613Z,101067.73
2018-02-07T17:00:17.006Z,101066.25
2018-02-07T17:02:44.402Z,101072.67
2018-02-07T17:05:11.790Z,101077.34
2018-02-07T17:07:39.242Z,101081.37
2018-02-07T17:10:06.702Z,101077.86
2018-02-07T17:12:34.110Z,101077.75
2018-02-07T17:15:02.557Z,101081.63
2018-02-07T17:17:30.182Z,101083.31
2018-02-07T17:19:57.655Z,101086.38
2018-02-07T17:22:25.106Z,101084.27
2018-02-07T17:24:52.495Z,101082.91
2018-02-07T17:27:19.899Z,101093.17
2018-02-07T17:29:47.388Z,101088.33
2018-02-07T17:32:14.832Z,101098.81
2018-02-07T17:34:42.218Z,101102.56
2018-02-07T17:37:09.613Z,101103.34
2018-02-07T17:39:37.098Z,101108.55
2018-02-07T17:42:04.497Z,101113.02
2018-02-07T17:44:31.906Z,101116.66
2018-02-07T17:46:59.365Z,101120.70
2018-02-07T17:49:26.828Z,101117.39
2018-02-07T17:51:54.279Z,101119.57
2018-02-07T17:54:21.673Z,101118.84
2018-02-07T17:56:49.083Z,101119.64
2018-02-07T17:59:16.476Z,101120.69
2018-02-07T18:01:43.883Z,101118.37
2018-02-07T18:04:11.351Z,101124.02
2018-02-07T18:06:38.782Z,101129.23
2018-02-07T18:09:06.172Z,101134.36
2018-02-07T18:11:33.581Z,101130.05
2018-02-07T18:14:00.987Z,101131.77
2018-02-07T18:16:28.378Z,101127.67
2018-02-07T18:18:55.802Z,101132.22
2018-02-07T18:21:23.257Z,101145.77
2018-02-07T18:23:50.688Z,101148.78
2018-02-07T18:26:18.068Z,101149.20
2018-02-07T18:28:45.545Z,101150.86
2018-02-07T18:31:12.962Z,101162.39
2018-02-07T18:33:40.362Z,101162.30
2018-02-07T18:36:07.765Z,101159.73
2018-02-07T18:38:35.175Z,101159.22
2018-02-07T18:41:02.608Z,101163.52
2018-02-07T18:43:30.030Z,101165.64
2018-02-07T18:45:57.422Z,101170.28
2018-02-07T18:48:24.882Z,101171.92
2018-02-07T18:50:52.318Z,101174.94
2018-02-07T18:53:19.734Z,101173.93
2018-02-07T18:55:47.130Z,101172.63
2018-02-07T18:58:14.531Z,101172.72
2018-02-07T19:00:41.937Z,101177.02
2018-02-07T19:03:09.338Z,101174.80
2018-02-07T19:05:36.742Z,101174.41
2018-02-07T19:08:04.163Z,101173.97
2018-02-07T19:10:31.562Z,101187.38
2018-02-07T19:12:59.047Z,101184.86
2018-02-07T19:15:26.442Z,101189.64
2018-02-07T19:17:53.838Z,101191.83
2018-02-07T19:20:21.232Z,101192.30
2018-02-07T19:22:48.639Z,101188.98
2018-02-07T19:25:16.032Z,101190.04
2018-02-07T19:27:43.437Z,101184.05
2018-02-07T19:30:10.949Z,101187.89
2018-02-07T19:32:38.409Z,101192.08
2018-02-07T19:35:06.453Z,101195.95
2018-02-07T19:37:33.859Z,101195.16
2018-02-07T19:40:01.264Z,101202.02
2018-02-07T19:42:28.665Z,101202.87
2018-02-07T19:44:56.058Z,101205.06
2018-02-07T19:47:23.539Z,101204.58
2018-02-07T19:49:50.944Z,101207.50
2018-02-07T19:52:19.051Z,101206.58
2018-02-07T19:54:46.427Z,101210.00
2018-02-07T19:57:13.826Z,101207.33
2018-02-07T19:59:41.218Z,101209.50
2018-02-07T20:02:08.625Z,101210.36
2018-02-07T20:04:36.017Z,101224.19
2018-02-07T20:07:03.424Z,101220.73
2018-02-07T20:09:30.983Z,101227.64
2018-02-07T20:11:58.375Z,101225.92
2018-02-07T20:14:25.775Z,101230.77
2018-02-07T20:16:53.174Z,101225.61
2018-02-07T20:19:21.247Z,101223.50
2018-02-07T20:21:48.643Z,101229.55
2018-02-07T20:24:16.678Z,101233.93
2018-02-07T20:26:44.178Z,101235.67
2018-02-07T20:29:11.578Z,101233.98
2018-02-07T20:31:38.963Z,101229.73
2018-02-07T20:34:06.366Z,101235.83
2018-02-07T20:36:34.429Z,101237.11
2018-02-07T20:39:01.818Z,101236.27
2018-02-07T20:41:29.303Z,101239.70
2018-02-07T20:43:56.734Z,101237.97
2018-02-07T20:46:24.163Z,101234.53
2018-02-07T20:48:51.561Z,101232.39
2018-02-07T20:51:18.955Z,101236.68
2018-02-07T20:53:46.354Z,101234.11
2018-02-07T20:56:13.862Z,101238.44
2018-02-07T20:58:42.164Z,101235.81
2018-02-07T21:01:09.564Z,101241.02
2018-02-07T21:03:36.961Z,101241.38
2018-02-07T21:06:04.363Z,101239.63
2018-02-07T21:08:31.764Z,101243.08
2018-02-07T21:10:59.167Z,101243.48
2018-02-07T21:13:26.562Z,101238.29
2018-02-07T21:15:54.014Z,101236.55
2018-02-07T21:18:21.468Z,101246.05
2018-02-07T21:20:48.940Z,101242.65
2018-02-07T21:23:16.674Z,101247.79
2018-02-07T21:25:44.294Z,101244.34
2018-02-07T21:28:11.693Z,101238.75
2018-02-07T21:30:39.195Z,101245.23
2018-02-07T21:33:06.650Z,101240.02
2018-02-07T21:35:34.052Z,101237.02
2018-02-07T21:38:01.449Z,101240.44
2018-02-07T21:40:28.830Z,101246.08
2018-02-07T21:42:56.234Z,101246.96
2018-02-07T21:45:23.634Z,101242.20
2018-02-07T21:47:51.026Z,101246.97
2018-02-07T21:50:18.465Z,101245.25
2018-02-07T21:52:45.870Z,101235.34
2018-02-07T21:55:13.303Z,101233.18
2018-02-07T21:57:40.704Z,101231.90
2018-02-07T22:00:08.114Z,101236.23
2018-02-07T22:02:35.506Z,101232.78
2018-02-07T22:05:02.963Z,101238.40
2018-02-07T22:07:30.432Z,101245.73
2018-02-07T22:09:57.834Z,101241.83
2018-02-07T22:12:25.345Z,101238.86
2018-02-07T22:14:52.837Z,101238.86
2018-02-07T22:17:20.226Z,101246.17
2018-02-07T22:19:47.634Z,101250.05
2018-02-07T22:22:15.059Z,101247.89
2018-02-07T22:24:42.502Z,101247.48
2018-02-07T22:27:09.904Z,101252.63
2018-02-07T22:29:37.301Z,101252.64
2018-02-07T22:32:04.780Z,101253.51
2018-02-07T22:34:32.179Z,101254.80
2018-02-07T22:36:59.586Z,101253.06
2018-02-07T22:39:27.036Z,101257.36
2018-02-07T22:41:54.441Z,101257.37
2018-02-07T22:44:21.851Z,101253.93
2018-02-07T22:46:49.257Z,101256.50
2018-02-07T22:49:16.648Z,101251.77
2018-02-07T22:51:44.043Z,101247.45
2018-02-07T22:54:11.446Z,101248.72
2018-02-07T22:56:38.925Z,101254.31
2018-02-07T22:59:06.382Z,101250.87
2018-02-07T23:01:33.786Z,101256.47
2018-02-07T23:04:01.296Z,101258.22
2018-02-07T23:06:28.718Z,101251.30
2018-02-07T23:08:56.218Z,101253.89
2018-02-07T23:11:23.609Z,101253.05
2018-02-07T23:13:51.134Z,101253.89
2018-02-07T23:16:18.531Z,101260.80
2018-02-07T23:18:46.031Z,101265.09
2018-02-07T23:21:13.421Z,101269.39
2018-02-07T23:23:40.826Z,101264.65
2018-02-07T23:26:08.241Z,101261.18
2018-02-07T23:28:35.905Z,101266.73
2018-02-07T23:31:03.393Z,101267.18
2018-02-07T23:33:30.884Z,101265.89
2018-02-07T23:35:58.335Z,101261.13
2018-02-07T23:38:25.734Z,101259.39
2018-02-07T23:40:53.125Z,101263.71
2018-02-07T23:43:20.526Z,101257.67
2018-02-07T23:45:47.946Z,101267.98
2018-02-07T23:48:15.358Z,101261.52
2018-02-07T23:50:42.765Z,101261.53
2018-02-07T23:53:10.257Z,101259.73
2018-02-07T23:55:37.649Z,101258.41
2018-02-07T23:58:05.055Z,101255.38
